Time;durP1;ratioP1;P1;durP2;ratioP2;P2;SDS_P1;SDS_P2;PMS_P1;PMS_P2;Temp;Humidity;BMP_temperature;BMP_pressure;BME280_temperature;BME280_humidity;BME280_pressure;Samples;Min_cycle;Max_cycle;Signal;HPM_P1;HPM_P2
2021/05/09 00:00:37;;;;;;;5.90;2.30;;;12.50;1.00;;;;;;5108441;27;20193;-72
2021/05/09 00:03:04;;;;;;;3.10;1.90;;;12.40;1.00;;;;;;5104692;27;20187;-72
2021/05/09 00:05:29;;;;;;;2.03;1.73;;;12.70;1.00;;;;;;5103378;27;20770;-72
2021/05/09 00:07:55;;;;;;;2.97;2.03;;;12.50;1.00;;;;;;5106628;27;20450;-73
2021/05/09 00:10:20;;;;;;;4.73;2.30;;;12.40;1.00;;;;;;5110553;27;20184;-72
2021/05/09 00:12:47;;;;;;;2.50;2.00;;;12.40;1.00;;;;;;5106494;27;20195;-72
2021/05/09 00:15:14;;;;;;;4.60;2.50;;;12.40;1.00;;;;;;5106753;27;20557;-72
2021/05/09 00:17:40;;;;;;;3.63;2.20;;;12.40;1.00;;;;;;5104479;27;20474;-72
2021/05/09 00:20:09;;;;;;;3.93;2.27;;;12.40;1.00;;;;;;5109516;27;20430;-72
2021/05/09 00:22:35;;;;;;;3.23;2.20;;;12.40;1.00;;;;;;5106658;27;20527;-72
2021/05/09 00:25:01;;;;;;;4.27;2.03;;;12.30;1.00;;;;;;5104139;27;20458;-72
2021/05/09 00:27:26;;;;;;;2.73;2.10;;;12.30;1.00;;;;;;5106554;27;20176;-72
2021/05/09 00:29:52;;;;;;;2.20;1.73;;;12.30;1.00;;;;;;5106271;27;20457;-72
2021/05/09 00:32:19;;;;;;;4.83;2.40;;;12.40;1.00;;;;;;5088315;27;20304;-72
2021/05/09 00:34:45;;;;;;;5.40;2.50;;;12.30;1.00;;;;;;5086845;28;20438;-72
2021/05/09 00:37:11;;;;;;;3.40;2.00;;;12.30;1.00;;;;;;5106807;27;20814;-72
2021/05/09 00:39:37;;;;;;;2.20;2.00;;;12.30;1.00;;;;;;5106334;27;20438;-72
2021/05/09 00:42:04;;;;;;;6.00;2.20;;;12.40;1.00;;;;;;5106531;27;20169;-72
2021/05/09 00:44:30;;;;;;;2.17;1.97;;;12.40;1.00;;;;;;5101331;27;20200;-72
2021/05/09 00:46:56;;;;;;;3.70;2.50;;;12.30;1.00;;;;;;5089220;27;20732;-72
2021/05/09 00:49:23;;;;;;;3.30;2.00;;;12.20;1.00;;;;;;5105568;27;20479;-72
2021/05/09 00:51:50;;;;;;;2.47;2.00;;;12.10;1.00;;;;;;5088923;27;20185;-71
2021/05/09 00:54:17;;;;;;;4.10;2.10;;;12.20;1.00;;;;;;5089534;27;24934;-72
2021/05/09 00:56:42;;;;;;;4.47;2.27;;;12.20;1.00;;;;;;5087331;27;20471;-72
2021/05/09 00:59:09;;;;;;;6.03;2.57;;;12.20;1.00;;;;;;5088346;28;21009;-72
2021/05/09 01:01:37;;;;;;;2.90;1.67;;;12.10;1.00;;;;;;5089252;27;20443;-72
2021/05/09 01:04:04;;;;;;;2.43;2.10;;;12.30;1.00;;;;;;5086325;28;20455;-72
2021/05/09 01:06:32;;;;;;;2.30;2.10;;;12.20;1.00;;;;;;5086525;27;20445;-72
2021/05/09 01:09:01;;;;;;;3.23;2.37;;;12.10;1.00;;;;;;5090392;27;20444;-72
2021/05/09 01:11:28;;;;;;;4.43;2.73;;;11.90;1.00;;;;;;5086684;27;20914;-72
2021/05/09 01:13:54;;;;;;;6.87;2.37;;;12.00;1.00;;;;;;5086775;27;20448;-71
2021/05/09 01:16:19;;;;;;;2.33;2.00;;;12.00;1.00;;;;;;5102969;27;20573;-72
2021/05/09 01:18:45;;;;;;;4.10;2.03;;;12.00;1.00;;;;;;5107362;27;24784;-71
2021/05/09 01:21:11;;;;;;;3.20;1.73;;;12.00;1.00;;;;;;5076745;27;20184;-72
2021/05/09 01:23:36;;;;;;;3.40;2.17;;;12.10;1.00;;;;;;5092215;27;20182;-72
2021/05/09 01:26:03;;;;;;;2.87;2.23;;;12.00;1.00;;;;;;5110334;27;20195;-72
2021/05/09 01:28:28;;;;;;;2.60;2.37;;;11.90;1.00;;;;;;5089051;27;20447;-72
2021/05/09 01:30:54;;;;;;;5.43;2.10;;;11.80;1.00;;;;;;5090726;27;20308;-72
2021/05/09 01:33:20;;;;;;;8.10;2.10;;;11.90;1.00;;;;;;5107542;27;20233;-72
2021/05/09 01:35:46;;;;;;;2.37;2.17;;;11.90;1.00;;;;;;5105278;27;20442;-72
2021/05/09 01:38:12;;;;;;;2.77;2.20;;;11.70;1.00;;;;;;5087644;27;20439;-72
2021/05/09 01:40:38;;;;;;;2.53;2.30;;;11.80;1.00;;;;;;5108285;27;20177;-72
2021/05/09 01:43:03;;;;;;;6.07;1.80;;;11.70;1.00;;;;;;5088217;27;20176;-72
2021/05/09 01:45:29;;;;;;;3.20;1.77;;;11.70;1.00;;;;;;5092462;27;20316;-72
2021/05/09 01:47:55;;;;;;;2.87;2.30;;;11.70;1.00;;;;;;5106593;27;20653;-72
2021/05/09 01:50:21;;;;;;;4.70;2.20;;;11.70;1.00;;;;;;5091286;27;20205;-72
2021/05/09 01:52:47;;;;;;;2.60;2.30;;;11.70;1.00;;;;;;5108326;27;20176;-71
2021/05/09 01:55:21;;;;;;;3.40;2.00;;;11.90;1.00;;;;;;5086584;27;21278;-72
2021/05/09 01:57:59;;;;;;;3.60;2.33;;;11.80;1.00;;;;;;5091682;27;20460;-72
2021/05/09 02:00:36;;;;;;;2.60;2.30;;;11.70;1.00;;;;;;5091901;27;20488;-72
2021/05/09 02:03:10;;;;;;;6.30;2.20;;;11.60;1.00;;;;;;5089049;27;20478;-72
2021/05/09 02:05:36;;;;;;;2.90;2.40;;;11.60;1.00;;;;;;5105277;27;20444;-71
2021/05/09 02:08:03;;;;;;;4.80;2.10;;;11.70;1.00;;;;;;5089283;27;20441;-72
2021/05/09 02:10:29;;;;;;;3.50;2.33;;;11.70;1.00;;;;;;5088450;27;20443;-72
2021/05/09 02:12:55;;;;;;;3.33;2.07;;;11.80;1.00;;;;;;5092033;27;21193;-72
2021/05/09 02:15:32;;;;;;;5.20;2.23;;;12.00;1.00;;;;;;5090004;27;20540;-72
2021/05/09 02:17:58;;;;;;;3.50;2.13;;;12.00;1.00;;;;;;5105635;27;20450;-72
2021/05/09 02:20:27;;;;;;;3.00;2.37;;;12.00;1.00;;;;;;5086914;27;20467;-72
2021/05/09 02:22:54;;;;;;;5.57;2.37;;;12.00;1.00;;;;;;5088605;27;21055;-72
2021/05/09 02:25:20;;;;;;;2.63;1.90;;;12.00;1.00;;;;;;5090106;27;20451;-72
2021/05/09 02:27:46;;;;;;;2.40;1.93;;;12.00;1.00;;;;;;5087598;27;20581;-71
2021/05/09 02:30:13;;;;;;;5.50;2.40;;;12.10;1.00;;;;;;5088527;27;20454;-73
2021/05/09 02:32:39;;;;;;;2.70;2.10;;;12.10;1.00;;;;;;5107653;27;20497;-72
2021/05/09 02:35:05;;;;;;;3.33;1.93;;;12.20;1.00;;;;;;5106990;27;22074;-72
2021/05/09 02:37:31;;;;;;;3.07;1.97;;;12.20;1.00;;;;;;5082883;27;20209;-71
2021/05/09 02:39:57;;;;;;;2.20;2.00;;;12.10;1.00;;;;;;5107456;27;20514;-72
2021/05/09 02:42:23;;;;;;;2.50;1.90;;;12.10;1.00;;;;;;5087990;27;20447;-72
2021/05/09 02:44:49;;;;;;;2.47;2.27;;;12.20;1.00;;;;;;5088809;27;20203;-72
2021/05/09 02:47:28;;;;;;;3.67;2.00;;;12.20;1.00;;;;;;5088156;27;20460;-72
2021/05/09 02:50:01;;;;;;;5.17;2.30;;;12.30;1.00;;;;;;5092612;27;20439;-71
2021/05/09 02:52:27;;;;;;;9.13;2.50;;;12.20;1.00;;;;;;5089699;27;20805;-71
2021/05/09 02:54:54;;;;;;;2.33;2.03;;;12.30;1.00;;;;;;5089333;27;20805;-71
2021/05/09 02:57:21;;;;;;;2.60;2.30;;;12.20;1.00;;;;;;5086534;27;21126;-72
2021/05/09 02:59:47;;;;;;;3.30;2.47;;;12.20;1.00;;;;;;5106605;27;20462;-72
2021/05/09 03:02:13;;;;;;;2.83;2.33;;;12.20;1.00;;;;;;5109316;27;20483;-71
2021/05/09 03:04:38;;;;;;;4.57;2.53;;;12.20;1.00;;;;;;5083985;27;21063;-72
2021/05/09 03:07:05;;;;;;;4.23;1.77;;;12.30;1.00;;;;;;5088594;27;24243;-72
2021/05/09 03:09:31;;;;;;;4.23;2.30;;;12.20;1.00;;;;;;5106099;27;21153;-72
2021/05/09 03:11:57;;;;;;;9.93;1.97;;;12.30;1.00;;;;;;5107608;27;20842;-72
2021/05/09 03:14:23;;;;;;;4.40;2.57;;;12.40;1.00;;;;;;5069757;27;20284;-72
2021/05/09 03:16:49;;;;;;;2.30;2.00;;;12.40;1.00;;;;;;5106539;27;21655;-72
2021/05/09 03:19:15;;;;;;;4.10;2.27;;;12.50;1.00;;;;;;5106770;27;20191;-72
2021/05/09 03:21:41;;;;;;;2.87;1.80;;;12.50;1.00;;;;;;5104774;27;21054;-72
2021/05/09 03:24:11;;;;;;;2.90;1.97;;;12.30;1.00;;;;;;5103886;27;20548;-72
2021/05/09 03:26:38;;;;;;;6.73;2.37;;;12.30;1.00;;;;;;5090321;27;20974;-71
2021/05/09 03:29:05;;;;;;;3.03;2.00;;;12.30;1.00;;;;;;5103567;27;20499;-71
2021/05/09 03:31:32;;;;;;;3.23;2.53;;;12.40;1.00;;;;;;5103088;27;20227;-72
2021/05/09 03:33:57;;;;;;;2.27;2.07;;;12.30;1.00;;;;;;5108550;27;20465;-72
2021/05/09 03:36:23;;;;;;;3.30;2.20;;;12.40;1.00;;;;;;5105831;27;21665;-72
2021/05/09 03:38:49;;;;;;;2.57;2.00;;;12.40;1.00;;;;;;5105020;27;20189;-72
2021/05/09 03:41:16;;;;;;;2.30;2.03;;;12.40;1.00;;;;;;5105541;27;20473;-72
2021/05/09 03:43:43;;;;;;;3.40;2.70;;;12.30;1.00;;;;;;5103638;27;20502;-71
2021/05/09 03:46:09;;;;;;;2.40;1.93;;;12.30;1.00;;;;;;5072761;27;20542;-72
2021/05/09 03:48:35;;;;;;;4.77;1.83;;;12.20;1.00;;;;;;5104031;27;20453;-72
2021/05/09 03:51:01;;;;;;;3.50;2.53;;;12.20;1.00;;;;;;5103921;27;20808;-72
2021/05/09 03:53:30;;;;;;;3.23;2.23;;;12.20;1.00;;;;;;5107697;27;20456;-72
2021/05/09 03:55:59;;;;;;;2.53;2.03;;;12.30;1.00;;;;;;5084610;27;20639;-72
2021/05/09 03:58:25;;;;;;;3.60;2.77;;;12.40;1.00;;;;;;5107579;27;20439;-72
2021/05/09 04:00:51;;;;;;;4.80;1.83;;;12.50;1.00;;;;;;5109137;27;20919;-72
2021/05/09 04:03:24;;;;;;;3.70;2.03;;;12.50;1.00;;;;;;5107415;27;20441;-72
2021/05/09 04:05:53;;;;;;;3.60;1.90;;;12.60;1.00;;;;;;5102342;27;20183;-72
2021/05/09 04:08:20;;;;;;;3.60;2.10;;;12.70;1.00;;;;;;5106489;27;20452;-71
2021/05/09 04:10:46;;;;;;;4.10;1.93;;;12.70;1.00;;;;;;5107800;27;20461;-71
2021/05/09 04:13:12;;;;;;;6.90;2.70;;;12.60;1.00;;;;;;5106478;27;20476;-72
2021/05/09 04:15:38;;;;;;;3.40;2.37;;;12.50;1.00;;;;;;5106329;27;20211;-72
2021/05/09 04:18:04;;;;;;;4.73;2.27;;;12.40;1.00;;;;;;5103547;27;20854;-72
2021/05/09 04:20:30;;;;;;;2.17;1.90;;;12.30;1.00;;;;;;5107076;27;20185;-72
2021/05/09 04:23:17;;;;;;;2.93;2.00;;;12.30;1.00;;;;;;5107350;27;20588;-73
2021/05/09 04:25:52;;;;;;;4.10;2.60;;;12.20;1.00;;;;;;5106019;27;20239;-72
2021/05/09 04:28:19;;;;;;;2.30;2.10;;;12.10;1.00;;;;;;5089879;27;20469;-72
2021/05/09 04:30:46;;;;;;;2.43;2.10;;;12.10;1.00;;;;;;5085616;27;20581;-72
2021/05/09 04:33:11;;;;;;;1.87;1.57;;;12.20;1.00;;;;;;5105290;27;20508;-72
2021/05/09 04:35:41;;;;;;;2.40;1.87;;;12.30;1.00;;;;;;5104957;27;20453;-72
2021/05/09 04:38:06;;;;;;;2.00;1.63;;;12.40;1.00;;;;;;5086845;27;20221;-71
2021/05/09 04:40:32;;;;;;;2.50;2.07;;;12.40;1.00;;;;;;5103771;27;20537;-71
2021/05/09 04:43:08;;;;;;;2.73;2.20;;;12.30;1.00;;;;;;5108198;27;20669;-71
2021/05/09 04:45:35;;;;;;;2.30;1.50;;;12.40;1.00;;;;;;5103539;27;20821;-71
2021/05/09 04:48:04;;;;;;;3.87;2.20;;;12.60;1.00;;;;;;5106759;27;20498;-71
2021/05/09 04:50:31;;;;;;;3.03;1.83;;;12.80;1.00;;;;;;5102417;27;20840;-71
2021/05/09 04:52:56;;;;;;;2.40;1.87;;;12.90;1.00;;;;;;5106413;27;20434;-71
2021/05/09 04:55:23;;;;;;;4.57;1.80;;;12.90;1.00;;;;;;5094366;27;20446;-71
2021/05/09 04:57:48;;;;;;;2.03;1.83;;;13.00;1.00;;;;;;5111585;27;20220;-71
2021/05/09 05:00:15;;;;;;;2.23;1.60;;;13.10;1.00;;;;;;5107424;27;20983;-71
2021/05/09 05:02:44;;;;;;;4.50;1.80;;;13.20;1.00;;;;;;5099050;27;22041;-71
2021/05/09 05:05:12;;;;;;;3.70;1.70;;;13.20;1.00;;;;;;5110326;27;20611;-71
2021/05/09 05:07:37;;;;;;;2.73;1.90;;;13.30;1.00;;;;;;5108412;27;20502;-71
2021/05/09 05:10:04;;;;;;;2.70;1.63;;;13.30;1.00;;;;;;5109550;27;21173;-71
2021/05/09 05:12:29;;;;;;;2.03;1.50;;;13.40;1.00;;;;;;5114338;27;20184;-71
2021/05/09 05:14:55;;;;;;;2.53;2.00;;;13.40;1.00;;;;;;5108443;27;20461;-71
2021/05/09 05:17:21;;;;;;;4.37;2.47;;;13.50;1.00;;;;;;5108395;27;20256;-71
2021/05/09 05:19:46;;;;;;;2.90;1.60;;;13.60;1.00;;;;;;5108250;27;20190;-72
2021/05/09 05:22:12;;;;;;;5.37;1.90;;;13.70;1.00;;;;;;5106731;27;20179;-71
2021/05/09 05:24:38;;;;;;;3.63;2.03;;;13.90;1.00;;;;;;5106439;27;20182;-71
2021/05/09 05:27:04;;;;;;;3.70;2.00;;;13.90;1.00;;;;;;5110315;27;20192;-71
2021/05/09 05:29:30;;;;;;;3.70;2.20;;;14.10;1.00;;;;;;5106599;27;20658;-71
2021/05/09 05:31:55;;;;;;;2.77;1.60;;;14.30;1.00;;;;;;5108593;27;20544;-71
2021/05/09 05:34:21;;;;;;;3.00;2.30;;;14.40;1.00;;;;;;5088229;27;20208;-72
2021/05/09 05:36:47;;;;;;;2.03;1.67;;;14.50;1.00;;;;;;5108148;27;21014;-71
2021/05/09 05:39:13;;;;;;;2.80;2.03;;;14.50;1.00;;;;;;5109244;27;20220;-72
2021/05/09 05:41:39;;;;;;;3.27;1.90;;;14.40;1.00;;;;;;5109072;27;20172;-72
2021/05/09 05:44:06;;;;;;;3.77;2.20;;;14.40;1.00;;;;;;5107206;27;20433;-72
2021/05/09 05:46:32;;;;;;;2.37;1.70;;;14.50;1.00;;;;;;5100802;27;20473;-71
2021/05/09 05:48:57;;;;;;;2.50;1.73;;;14.50;1.00;;;;;;5106673;27;20474;-72
2021/05/09 05:51:23;;;;;;;3.43;1.87;;;14.60;1.00;;;;;;5108990;27;20227;-72
2021/05/09 05:53:56;;;;;;;5.43;1.80;;;14.60;1.00;;;;;;5105625;27;20836;-72
2021/05/09 05:56:26;;;;;;;4.33;1.47;;;14.60;1.00;;;;;;5107509;27;20689;-72
2021/05/09 05:58:52;;;;;;;2.53;1.60;;;14.70;1.00;;;;;;5108212;27;20438;-71
2021/05/09 06:01:19;;;;;;;2.87;1.83;;;14.90;1.00;;;;;;5105813;27;20521;-72
2021/05/09 06:03:44;;;;;;;2.50;1.73;;;14.90;1.00;;;;;;5104941;27;20449;-71
2021/05/09 06:06:10;;;;;;;2.63;1.47;;;15.00;1.00;;;;;;5110194;27;20451;-72
2021/05/09 06:08:37;;;;;;;4.30;1.87;;;15.20;1.00;;;;;;5109801;27;20192;-71
2021/05/09 06:11:03;;;;;;;2.53;1.50;;;15.40;1.00;;;;;;5107109;27;20187;-71
2021/05/09 06:13:28;;;;;;;3.10;1.57;;;15.50;1.00;;;;;;5102979;27;20454;-72
2021/05/09 06:15:54;;;;;;;3.70;1.70;;;15.70;1.00;;;;;;5107176;27;20224;-72
2021/05/09 06:18:20;;;;;;;2.23;1.37;;;15.70;1.00;;;;;;5108654;27;20227;-72
2021/05/09 06:20:46;;;;;;;2.23;1.83;;;15.80;1.00;;;;;;5106375;27;20438;-72
2021/05/09 06:23:12;;;;;;;2.23;1.30;;;15.80;1.00;;;;;;5102978;27;20202;-72
2021/05/09 06:25:38;;;;;;;2.87;1.50;;;15.90;1.00;;;;;;5106321;27;20172;-72
2021/05/09 06:28:04;;;;;;;3.30;1.80;;;16.20;1.00;;;;;;5107926;27;20219;-71
2021/05/09 06:30:30;;;;;;;2.40;1.53;;;16.30;1.00;;;;;;5107329;27;20938;-72
2021/05/09 06:32:56;;;;;;;3.40;1.83;;;16.40;1.00;;;;;;5106382;27;20566;-72
2021/05/09 06:35:22;;;;;;;2.13;1.73;;;16.50;1.00;;;;;;5104856;27;20541;-72
2021/05/09 06:37:53;;;;;;;1.90;1.53;;;16.60;1.00;;;;;;5104094;27;20328;-72
2021/05/09 06:40:20;;;;;;;3.30;1.60;;;16.80;1.00;;;;;;5104863;27;20785;-72
2021/05/09 06:42:45;;;;;;;1.83;1.40;;;16.90;1.00;;;;;;5107117;27;20737;-72
2021/05/09 06:45:22;;;;;;;1.70;1.20;;;17.10;1.00;;;;;;5085789;27;590331;-72
2021/05/09 06:47:48;;;;;;;4.03;2.30;;;17.10;1.00;;;;;;5110761;27;20176;-71
2021/05/09 06:50:13;;;;;;;3.27;1.97;;;17.20;1.00;;;;;;5104359;27;20453;-72
2021/05/09 06:52:42;;;;;;;2.03;1.47;;;17.40;1.00;;;;;;5099353;27;20820;-72
2021/05/09 06:55:08;;;;;;;3.00;1.67;;;17.50;1.00;;;;;;5091480;27;20867;-72
2021/05/09 06:57:35;;;;;;;1.73;1.30;;;17.60;1.00;;;;;;5107263;27;20461;-71
2021/05/09 07:00:01;;;;;;;2.80;1.30;;;17.70;1.00;;;;;;5105152;27;20444;-71
2021/05/09 07:02:27;;;;;;;3.83;1.80;;;17.70;1.00;;;;;;5102020;27;20506;-71
2021/05/09 07:04:53;;;;;;;2.20;1.50;;;17.90;1.00;;;;;;5104139;27;20594;-72
2021/05/09 07:07:18;;;;;;;2.90;1.90;;;18.00;1.00;;;;;;5109845;27;20212;-72
2021/05/09 07:09:44;;;;;;;2.10;1.20;;;18.10;1.00;;;;;;5108732;27;20216;-71
2021/05/09 07:12:09;;;;;;;1.87;1.20;;;18.20;1.00;;;;;;5107815;27;20191;-71
2021/05/09 07:14:35;;;;;;;4.60;1.67;;;18.30;1.00;;;;;;5107607;27;20690;-71
2021/05/09 07:17:01;;;;;;;4.47;1.70;;;18.20;1.00;;;;;;5106820;27;20240;-71
2021/05/09 07:19:27;;;;;;;2.90;1.60;;;18.20;1.00;;;;;;5108842;27;20176;-72
2021/05/09 07:21:57;;;;;;;2.67;1.90;;;18.30;1.00;;;;;;5107128;27;20518;-72
2021/05/09 07:24:22;;;;;;;2.93;1.30;;;18.40;1.00;;;;;;5105457;27;20308;-72
2021/05/09 07:26:48;;;;;;;4.40;1.60;;;18.60;1.00;;;;;;5108799;27;21022;-72
2021/05/09 07:29:14;;;;;;;2.30;1.60;;;18.70;1.00;;;;;;5087471;27;20179;-72
2021/05/09 07:31:42;;;;;;;3.83;1.70;;;18.80;1.00;;;;;;5091689;27;20204;-72
2021/05/09 07:34:13;;;;;;;2.33;1.37;;;18.90;1.00;;;;;;5104584;27;20203;-72
2021/05/09 07:36:39;;;;;;;1.93;1.40;;;18.90;1.00;;;;;;5091089;27;20508;-72
2021/05/09 07:39:06;;;;;;;2.70;1.47;;;19.00;1.00;;;;;;5105598;27;20450;-72
2021/05/09 07:41:31;;;;;;;2.50;1.50;;;19.10;1.00;;;;;;5108083;27;20910;-72
2021/05/09 07:44:00;;;;;;;4.90;1.70;;;19.30;1.00;;;;;;5108038;27;20442;-72
2021/05/09 07:46:26;;;;;;;4.00;1.90;;;19.50;1.00;;;;;;5106548;27;20223;-72
2021/05/09 07:48:51;;;;;;;2.53;1.47;;;19.70;1.00;;;;;;5107534;27;21231;-72
2021/05/09 07:51:17;;;;;;;2.00;1.50;;;19.80;1.00;;;;;;5105500;27;20592;-71
2021/05/09 07:53:43;;;;;;;4.17;1.83;;;20.00;1.00;;;;;;5101524;27;20271;-71
2021/05/09 07:56:09;;;;;;;3.80;1.83;;;20.10;1.00;;;;;;5107543;27;20470;-71
2021/05/09 07:58:34;;;;;;;4.07;1.80;;;20.20;1.00;;;;;;5108712;27;20701;-71
2021/05/09 08:01:04;;;;;;;2.10;1.43;;;20.20;1.00;;;;;;5108142;27;20196;-71
2021/05/09 08:03:30;;;;;;;3.13;1.70;;;20.30;1.00;;;;;;5088965;27;20293;-72
2021/05/09 08:05:56;;;;;;;3.80;1.60;;;20.40;1.00;;;;;;5112369;27;20438;-71
2021/05/09 08:08:28;;;;;;;2.10;1.60;;;20.40;1.00;;;;;;5110619;27;20438;-71
2021/05/09 08:10:57;;;;;;;2.90;1.63;;;20.60;1.00;;;;;;5096117;27;20555;-72
2021/05/09 08:13:23;;;;;;;4.30;2.13;;;20.70;1.00;;;;;;5096213;27;20479;-72
2021/05/09 08:15:50;;;;;;;3.73;1.70;;;20.60;1.00;;;;;;5107511;27;20998;-71
2021/05/09 08:18:24;;;;;;;2.30;1.60;;;20.60;1.00;;;;;;5107127;27;20447;-71
2021/05/09 08:20:50;;;;;;;5.60;1.97;;;20.60;1.00;;;;;;5104358;27;20483;-71
2021/05/09 08:23:16;;;;;;;1.80;1.60;;;20.60;1.00;;;;;;5098502;27;20440;-72
2021/05/09 08:25:45;;;;;;;3.20;2.20;;;20.60;1.00;;;;;;5101765;27;20358;-72
2021/05/09 08:28:24;;;;;;;2.00;1.53;;;20.60;1.00;;;;;;5087208;27;20445;-72
2021/05/09 08:30:50;;;;;;;2.40;1.80;;;20.70;1.00;;;;;;5087863;28;20553;-71
2021/05/09 08:33:15;;;;;;;2.90;2.23;;;20.90;1.00;;;;;;5106269;27;20975;-71
2021/05/09 08:35:41;;;;;;;3.73;2.00;;;20.90;1.00;;;;;;5108467;27;20246;-71
2021/05/09 08:38:07;;;;;;;3.50;1.70;;;21.00;1.00;;;;;;5108052;27;20323;-71
2021/05/09 08:40:33;;;;;;;3.40;2.23;;;21.20;1.00;;;;;;5109346;27;20186;-71
2021/05/09 08:42:59;;;;;;;3.10;2.00;;;21.20;1.00;;;;;;5106719;27;20193;-71
2021/05/09 08:45:25;;;;;;;4.17;2.30;;;21.30;1.00;;;;;;5108009;27;20192;-71
2021/05/09 08:47:53;;;;;;;3.80;2.00;;;21.50;1.00;;;;;;5088795;28;20492;-72
2021/05/09 08:50:20;;;;;;;2.70;1.60;;;21.70;1.00;;;;;;5107289;27;20177;-72
2021/05/09 08:52:49;;;;;;;2.47;2.00;;;21.70;1.00;;;;;;5102320;27;21270;-72
2021/05/09 08:55:22;;;;;;;3.20;1.70;;;21.50;1.00;;;;;;5108498;27;20441;-71
2021/05/09 08:57:57;;;;;;;3.70;1.80;;;21.50;1.00;;;;;;5087689;28;20494;-72
2021/05/09 09:00:25;;;;;;;2.63;1.87;;;21.70;1.00;;;;;;5110896;27;20445;-71
2021/05/09 09:02:50;;;;;;;2.50;1.73;;;22.00;1.00;;;;;;5107042;27;20461;-71
2021/05/09 09:05:17;;;;;;;2.67;2.10;;;22.00;1.00;;;;;;5105478;27;20441;-71
2021/05/09 09:07:46;;;;;;;8.60;1.80;;;22.20;1.00;;;;;;5108864;27;20182;-71
2021/05/09 09:10:32;;;;;;;2.57;1.77;;;22.30;1.00;;;;;;5107422;27;20442;-71
2021/05/09 09:13:00;;;;;;;3.80;1.63;;;22.20;1.00;;;;;;5107035;27;20953;-72
2021/05/09 09:15:55;;;;;;;4.17;1.87;;;22.00;1.00;;;;;;5110509;27;20854;-71
2021/05/09 09:18:41;;;;;;;3.80;1.70;;;21.80;1.00;;;;;;5090789;27;20435;-72
2021/05/09 09:21:21;;;;;;;3.90;2.00;;;21.60;1.00;;;;;;5100534;27;20481;-72
2021/05/09 09:23:49;;;;;;;3.40;1.63;;;21.50;1.00;;;;;;5103475;27;20449;-72
2021/05/09 09:26:28;;;;;;;2.60;1.70;;;21.50;1.00;;;;;;5087093;27;20817;-72
2021/05/09 09:28:54;;;;;;;3.60;1.97;;;21.50;1.00;;;;;;5109241;27;20449;-71
2021/05/09 09:31:59;;;;;;;2.30;1.87;;;21.80;1.00;;;;;;5111257;27;20471;-73
2021/05/09 09:34:46;;;;;;;2.87;1.80;;;22.30;1.00;;;;;;5007079;28;20203;-71
2021/05/09 09:37:14;;;;;;;6.23;1.97;;;22.60;1.00;;;;;;5103971;27;20843;-72
2021/05/09 09:39:47;;;;;;;3.30;1.90;;;22.90;1.00;;;;;;5113787;27;20440;-72
2021/05/09 09:42:14;;;;;;;3.50;2.00;;;23.20;1.00;;;;;;5107839;27;20441;-73
2021/05/09 09:44:40;;;;;;;3.77;1.67;;;23.40;1.00;;;;;;5106185;27;21803;-71
2021/05/09 09:47:05;;;;;;;3.10;1.70;;;23.60;1.00;;;;;;5088879;27;20627;-72
2021/05/09 09:49:35;;;;;;;2.90;1.70;;;23.70;1.00;;;;;;5104760;27;20184;-72
2021/05/09 09:52:03;;;;;;;2.07;1.57;;;23.80;1.00;;;;;;5086443;27;20185;-73
2021/05/09 09:54:32;;;;;;;2.87;1.50;;;23.90;1.00;;;;;;5103878;27;20438;-71
2021/05/09 09:57:04;;;;;;;3.43;1.67;;;24.00;1.00;;;;;;5109156;27;20478;-72
2021/05/09 09:59:30;;;;;;;4.30;1.90;;;24.00;1.00;;;;;;5108047;27;20446;-73
2021/05/09 10:01:59;;;;;;;4.00;1.83;;;24.00;1.00;;;;;;5100111;27;20880;-73
2021/05/09 10:04:24;;;;;;;2.07;1.63;;;24.20;1.00;;;;;;5099486;27;20213;-73
2021/05/09 10:06:50;;;;;;;3.20;2.00;;;24.30;1.00;;;;;;5102785;27;20560;-73
2021/05/09 10:09:16;;;;;;;3.30;1.73;;;24.50;1.00;;;;;;5091432;27;20338;-73
2021/05/09 10:11:41;;;;;;;2.57;2.00;;;24.70;1.00;;;;;;5089814;27;22485;-73
2021/05/09 10:14:07;;;;;;;5.10;2.20;;;24.60;1.00;;;;;;5097375;27;20727;-74
2021/05/09 10:16:35;;;;;;;3.17;2.37;;;24.70;1.00;;;;;;5092066;27;20216;-73
2021/05/09 10:19:06;;;;;;;3.03;2.17;;;24.70;1.00;;;;;;5085965;27;20487;-73
2021/05/09 10:21:36;;;;;;;3.63;2.10;;;24.40;1.00;;;;;;5089036;27;20450;-73
2021/05/09 10:24:18;;;;;;;3.10;1.90;;;24.00;1.00;;;;;;5082849;27;20907;-73
2021/05/09 10:26:58;;;;;;;2.73;1.50;;;24.10;1.00;;;;;;5088508;27;20438;-72
2021/05/09 10:29:40;;;;;;;2.50;1.97;;;24.20;1.00;;;;;;5084799;27;20454;-72
2021/05/09 10:32:08;;;;;;;4.63;2.13;;;24.40;1.00;;;;;;5076690;27;20482;-73
2021/05/09 10:35:00;;;;;;;2.63;2.20;;;24.70;1.00;;;;;;5080666;27;21016;-73
2021/05/09 10:37:48;;;;;;;2.50;2.17;;;24.90;1.00;;;;;;5062383;27;20461;-73
2021/05/09 10:40:31;;;;;;;5.97;2.00;;;25.00;1.00;;;;;;5087348;27;20422;-73
2021/05/09 10:43:02;;;;;;;3.43;1.70;;;25.30;1.00;;;;;;5089541;27;21355;-73
2021/05/09 10:45:51;;;;;;;2.90;1.70;;;25.30;1.00;;;;;;5086335;27;21031;-73
2021/05/09 10:48:21;;;;;;;4.20;1.57;;;25.30;1.00;;;;;;5090241;27;20554;-73
2021/05/09 10:50:57;;;;;;;2.97;1.70;;;25.30;1.00;;;;;;5087492;27;20442;-73
2021/05/09 10:53:34;;;;;;;3.10;1.80;;;25.40;1.00;;;;;;5096420;27;20460;-73
2021/05/09 10:56:03;;;;;;;3.20;1.90;;;25.30;1.00;;;;;;5092649;27;20442;-73
2021/05/09 10:58:45;;;;;;;6.00;2.07;;;25.50;1.00;;;;;;5097105;27;20988;-73
2021/05/09 11:01:16;;;;;;;3.70;2.10;;;25.70;1.00;;;;;;5089990;27;20940;-72
2021/05/09 11:03:42;;;;;;;3.97;2.10;;;25.50;1.00;;;;;;5089917;27;21211;-71
2021/05/09 11:06:18;;;;;;;6.33;1.60;;;25.30;1.00;;;;;;5097950;27;20465;-71
2021/05/09 11:09:02;;;;;;;3.13;1.70;;;25.20;1.00;;;;;;5092233;27;20200;-72
2021/05/09 11:11:28;;;;;;;3.57;2.00;;;24.90;1.00;;;;;;5098884;27;20438;-73
2021/05/09 11:14:00;;;;;;;3.40;1.90;;;24.90;1.00;;;;;;5096119;27;20773;-73
2021/05/09 11:16:25;;;;;;;3.43;2.27;;;24.80;1.00;;;;;;5071378;27;20687;-73
2021/05/09 11:19:12;;;;;;;2.67;1.87;;;24.70;1.00;;;;;;5096996;27;20446;-73
2021/05/09 11:21:46;;;;;;;5.97;2.20;;;24.50;1.00;;;;;;5093255;27;20264;-73
2021/05/09 11:24:23;;;;;;;2.77;1.93;;;24.40;1.00;;;;;;5087805;27;20438;-74
2021/05/09 11:26:50;;;;;;;3.03;1.80;;;24.60;1.00;;;;;;5089408;27;20442;-72
2021/05/09 11:29:19;;;;;;;2.80;2.00;;;24.70;1.00;;;;;;5089874;27;20454;-72
2021/05/09 11:31:46;;;;;;;2.57;1.80;;;24.80;1.00;;;;;;5091936;27;20529;-72
2021/05/09 11:34:14;;;;;;;3.70;2.00;;;24.70;1.00;;;;;;5076164;27;20825;-72
2021/05/09 11:36:41;;;;;;;4.77;2.20;;;24.60;1.00;;;;;;5085024;27;20986;-72
2021/05/09 11:39:06;;;;;;;3.10;1.80;;;24.60;1.00;;;;;;5092509;27;20588;-72
2021/05/09 11:41:54;;;;;;;3.10;2.10;;;24.60;1.00;;;;;;5098755;27;20718;-72
2021/05/09 11:44:25;;;;;;;5.10;2.10;;;24.60;1.00;;;;;;5089651;27;20215;-72
2021/05/09 11:46:51;;;;;;;3.60;1.97;;;24.60;1.00;;;;;;5093881;27;20820;-72
2021/05/09 11:49:17;;;;;;;6.90;2.20;;;24.70;1.00;;;;;;5098616;27;20491;-72
2021/05/09 11:52:09;;;;;;;3.30;1.93;;;24.80;1.00;;;;;;5095081;27;22441;-72
2021/05/09 11:54:43;;;;;;;2.40;1.90;;;24.90;1.00;;;;;;5083179;27;20581;-72
2021/05/09 11:57:09;;;;;;;2.50;1.73;;;25.30;1.00;;;;;;5094493;27;20597;-72
2021/05/09 11:59:36;;;;;;;4.13;2.20;;;25.60;1.00;;;;;;5098470;27;22782;-72
2021/05/09 12:02:17;;;;;;;4.33;1.90;;;25.90;1.00;;;;;;5093875;27;20922;-72
2021/05/09 12:05:10;;;;;;;3.90;2.23;;;26.10;1.00;;;;;;5093795;27;20443;-72
2021/05/09 12:07:49;;;;;;;3.40;2.00;;;26.30;1.00;;;;;;5079179;27;20919;-72
2021/05/09 12:10:30;;;;;;;4.40;2.33;;;26.50;1.00;;;;;;5097537;27;20454;-72
2021/05/09 12:13:06;;;;;;;2.37;2.00;;;26.40;1.00;;;;;;5096543;27;20483;-72
2021/05/09 12:15:40;;;;;;;3.83;2.17;;;26.30;1.00;;;;;;5091250;27;20974;-72
2021/05/09 12:18:07;;;;;;;2.90;2.03;;;26.50;1.00;;;;;;5088776;27;20477;-72
2021/05/09 12:20:43;;;;;;;4.17;1.80;;;26.50;1.00;;;;;;5092821;27;20476;-72
2021/05/09 12:23:24;;;;;;;2.07;1.33;;;26.50;1.00;;;;;;5091762;27;21102;-73
2021/05/09 12:25:52;;;;;;;2.80;1.70;;;26.50;1.00;;;;;;5090901;27;20560;-73
2021/05/09 12:28:20;;;;;;;3.03;2.07;;;26.70;1.00;;;;;;5096477;27;21451;-72
2021/05/09 12:30:50;;;;;;;2.33;1.63;;;26.80;1.00;;;;;;5096043;27;20457;-73
2021/05/09 12:33:34;;;;;;;4.33;1.80;;;26.70;1.00;;;;;;5096429;27;20930;-72
2021/05/09 12:36:14;;;;;;;4.00;2.20;;;26.60;1.00;;;;;;5099309;27;20470;-73
2021/05/09 12:38:39;;;;;;;4.80;1.80;;;26.60;1.00;;;;;;5094218;27;20503;-73
2021/05/09 12:41:15;;;;;;;2.83;2.20;;;26.60;1.00;;;;;;5095023;27;20929;-73
2021/05/09 12:43:44;;;;;;;2.90;1.77;;;26.80;1.00;;;;;;5089178;27;20530;-73
2021/05/09 12:46:56;;;;;;;2.93;1.70;;;26.80;1.00;;;;;;5090590;27;21549;-72
2021/05/09 12:49:26;;;;;;;3.20;1.80;;;26.80;1.00;;;;;;5105256;27;20986;-73
2021/05/09 12:51:55;;;;;;;3.50;1.97;;;26.80;1.00;;;;;;5094630;27;21011;-72
2021/05/09 12:54:39;;;;;;;5.93;1.90;;;26.90;1.00;;;;;;5103255;27;20457;-72
2021/05/09 12:57:15;;;;;;;2.60;1.83;;;27.20;1.00;;;;;;5087168;28;20545;-73
2021/05/09 12:59:50;;;;;;;3.50;1.80;;;27.20;1.00;;;;;;5095341;27;20435;-71
2021/05/09 13:02:21;;;;;;;2.70;1.80;;;27.30;1.00;;;;;;5077936;27;20879;-72
2021/05/09 13:04:48;;;;;;;1.70;1.47;;;27.10;1.00;;;;;;5096957;27;20430;-72
2021/05/09 13:07:17;;;;;;;2.43;1.73;;;26.90;1.00;;;;;;5092665;27;20470;-71